Impacts TAF Board
For situational awareness. Not to be used for flight planning purposes.
IDs:

KSEA - Seattle-Tacoma Intl, WA, US

Issued at 2320 UTC 02 Jul 2022
Updated at 0147 UTC 03 Jul 2022
Potential Impact None Slight Moderate High
Time0053Z 03/02Z 03/03Z 03/04Z 03/05Z 03/06Z 03/07Z 03/08Z 03/09Z 03/10Z 03/11Z 03/12Z 03/13Z 03/14Z>>
Type OBS PRVL PRVL PRVL PRVL PRVL PRVL PRVL PRVL PRVL PRVL PRVL PRVL PRVL
VIS 10 >6 >6 >6 >6 >6 >6 >6 >6 >6 >6 >6 >6 >6
CIG 210 30 30 30 30 30 30 30 15 15 15 15 15 15
Cover BKN BKN BKN BKN BKN BKN BKN BKN OVC OVC OVC OVC OVC OVC
FltCat VFR MVFR MVFR MVFR MVFR MVFR MVFR MVFR MVFR MVFR MVFR MVFR MVFR MVFR
WX -- -- -- -- -- -- -- -- VCSH VCSH VCSH VCSH VCSH VCSH
WDir 220 220 220 220 220 220 220 220 210 210 210 210 210 210
WSpd 7 7 7 7 7 7 7 7 5 5 5 5 5 5
WGst -- -- -- -- -- -- -- -- -- -- -- -- -- --
WSHgt -- -- -- -- -- -- -- -- -- -- -- -- -- --
WSDir -- -- -- -- -- -- -- -- -- -- -- -- -- --
WSSpd -- -- -- -- -- -- -- -- -- -- -- -- -- --
Raw TAF
KSEA 022320Z 0300/0406 22007KT P6SM SCT015 BKN030
  FM030900 21005KT P6SM VCSH OVC015
  FM032000 21006KT P6SM -SHRA OVC025


Raw METAR
KSEA 030053Z 22007KT 10SM FEW030 BKN210 18/12 A2990 RMK AO2 SLP132 T01830122 $
KSEA 030026Z 23009KT 10SM SCT028 BKN210 18/12 A2991 RMK AO2 T01780122 $
KSEA 022353Z 27007KT 10SM FEW021 BKN028 BKN210 19/13 A2992 RMK AO2 SLP135 T01890128 10194 20150 58013 $
KSEA 022253Z 21008KT 10SM SCT018 BKN027 18/13 A2993 RMK AO2 SLP140 T01780128 $

METAR Board
Radar Display
Forecast Discussion
For situational awareness. Not to be used for flight planning purposes.